createdAt,value
2022-09-07T00:00:00.892Z,12.96
2022-09-07T00:02:29.253Z,12.91
2022-09-07T00:04:57.186Z,12.86
2022-09-07T00:07:26.192Z,12.87
2022-09-07T00:09:53.627Z,12.80
2022-09-07T00:12:20.717Z,12.75
2022-09-07T00:14:47.974Z,12.70
2022-09-07T00:17:15.095Z,12.67
2022-09-07T00:19:44.879Z,12.63
2022-09-07T00:22:11.901Z,12.61
2022-09-07T00:24:38.984Z,12.58
2022-09-07T00:27:05.986Z,12.69
2022-09-07T00:29:33.683Z,12.60
2022-09-07T00:32:01.455Z,12.63
2022-09-07T00:34:31.872Z,12.55
2022-09-07T00:36:59.494Z,12.52
2022-09-07T00:39:27.094Z,12.49
2022-09-07T00:41:54.459Z,12.55
2022-09-07T00:44:43.528Z,12.48
2022-09-07T00:47:40.876Z,12.45
2022-09-07T00:50:39.839Z,12.50
2022-09-07T00:53:14.576Z,12.38
2022-09-07T00:55:45.086Z,12.36
2022-09-07T00:58:13.603Z,12.28
2022-09-07T01:00:42.801Z,12.20
2022-09-07T01:03:11.886Z,12.24
2022-09-07T01:06:10.415Z,12.31
2022-09-07T01:08:38.414Z,12.24
2022-09-07T01:11:06.258Z,12.25
2022-09-07T01:13:33.311Z,12.26
2022-09-07T01:16:30.077Z,12.24
2022-09-07T01:19:25.302Z,12.20
2022-09-07T01:22:19.745Z,12.24
2022-09-07T01:25:15.289Z,12.18
2022-09-07T01:28:14.938Z,12.19
2022-09-07T01:31:05.041Z,12.16
2022-09-07T01:33:52.631Z,12.07
2022-09-07T01:36:39.150Z,12.10
2022-09-07T01:39:07.355Z,12.00
2022-09-07T01:41:54.035Z,11.93
2022-09-07T01:44:31.481Z,11.97
2022-09-07T01:47:29.198Z,11.93
2022-09-07T01:50:04.944Z,12.01
2022-09-07T01:52:41.323Z,11.90
2022-09-07T01:55:37.512Z,11.87
2022-09-07T01:58:11.268Z,11.78
2022-09-07T02:00:44.114Z,11.76
2022-09-07T02:03:21.029Z,11.81
2022-09-07T02:06:22.877Z,11.82
2022-09-07T02:08:53.320Z,11.77
2022-09-07T02:11:25.988Z,11.75
2022-09-07T02:14:04.654Z,11.74
2022-09-07T02:16:34.072Z,11.82
2022-09-07T02:19:06.304Z,11.75
2022-09-07T02:21:44.365Z,11.71
2022-09-07T02:24:41.018Z,11.79
2022-09-07T02:27:14.403Z,11.72
2022-09-07T02:29:44.174Z,11.76
2022-09-07T02:32:12.086Z,11.72
2022-09-07T02:34:39.664Z,11.77
2022-09-07T02:37:10.774Z,11.70
2022-09-07T02:39:39.122Z,11.65
2022-09-07T02:42:09.799Z,11.60
2022-09-07T02:44:42.736Z,11.66
2022-09-07T02:47:32.795Z,11.63
2022-09-07T02:50:31.372Z,11.58
2022-09-07T02:53:29.651Z,11.63
2022-09-07T02:56:00.135Z,11.58
2022-09-07T02:59:05.240Z,11.57
2022-09-07T03:01:55.663Z,11.56
2022-09-07T03:04:49.183Z,11.52
2022-09-07T03:07:57.164Z,11.47
2022-09-07T03:10:27.884Z,11.44
2022-09-07T03:12:55.832Z,11.43
2022-09-07T03:15:24.998Z,11.47
2022-09-07T03:17:53.860Z,11.32
2022-09-07T03:20:22.811Z,11.33
2022-09-07T03:22:51.607Z,11.37
2022-09-07T03:25:22.809Z,11.30
2022-09-07T03:27:50.131Z,11.24
2022-09-07T03:30:17.528Z,11.26
2022-09-07T03:32:44.756Z,11.28
2022-09-07T03:35:14.405Z,11.28
2022-09-07T03:37:43.090Z,11.21
2022-09-07T03:40:13.285Z,11.20
2022-09-07T03:42:42.050Z,11.24
2022-09-07T03:45:21.334Z,11.22
2022-09-07T03:47:51.868Z,11.25
2022-09-07T03:50:18.928Z,11.27
2022-09-07T03:52:46.329Z,11.19
2022-09-07T03:55:13.452Z,11.15
2022-09-07T03:57:40.726Z,11.18
2022-09-07T04:00:08.543Z,11.18
2022-09-07T04:02:35.707Z,11.14
2022-09-07T04:05:02.823Z,11.16
2022-09-07T04:07:30.121Z,11.15
2022-09-07T04:10:00.567Z,11.18
2022-09-07T04:12:28.117Z,11.16
2022-09-07T04:14:55.347Z,11.22
2022-09-07T04:17:22.543Z,11.26
2022-09-07T04:19:49.531Z,11.22
2022-09-07T04:22:21.342Z,11.24
2022-09-07T04:24:48.577Z,11.30
2022-09-07T04:27:16.199Z,11.32
2022-09-07T04:29:43.225Z,11.37
2022-09-07T04:32:15.700Z,11.37
2022-09-07T04:34:43.732Z,11.36
2022-09-07T04:37:10.927Z,11.40
2022-09-07T04:39:37.955Z,11.42
2022-09-07T04:42:05.216Z,11.42
2022-09-07T04:44:35.378Z,11.49
2022-09-07T04:47:02.490Z,11.50
2022-09-07T04:49:29.633Z,11.52
2022-09-07T04:51:57.052Z,11.56
2022-09-07T04:54:24.162Z,11.56
2022-09-07T04:56:51.401Z,11.63
2022-09-07T04:59:18.687Z,11.70
2022-09-07T05:01:45.707Z,11.77
2022-09-07T05:04:16.179Z,11.83
2022-09-07T05:06:43.762Z,11.92
2022-09-07T05:09:12.658Z,11.96
2022-09-07T05:11:40.269Z,12.13
2022-09-07T05:14:07.619Z,12.33
2022-09-07T05:16:35.472Z,12.62
2022-09-07T05:19:04.023Z,12.81
2022-09-07T05:21:36.339Z,12.99
2022-09-07T05:24:04.514Z,13.32
2022-09-07T05:26:33.596Z,13.63
2022-09-07T05:31:53.474Z,14.33
2022-09-07T05:34:35.809Z,14.66
2022-09-07T05:37:03.361Z,15.07
2022-09-07T05:39:31.007Z,15.39
2022-09-07T05:41:58.199Z,15.64
2022-09-07T05:47:12.556Z,16.20
2022-09-07T05:49:39.769Z,16.39
2022-09-07T05:52:07.185Z,16.56
2022-09-07T05:54:35.038Z,16.85
2022-09-07T05:57:03.912Z,17.21
2022-09-07T05:59:33.739Z,17.59
2022-09-07T06:02:04.429Z,17.93
2022-09-07T06:04:31.892Z,18.24
2022-09-07T06:07:20.531Z,18.50
2022-09-07T06:12:34.658Z,19.00
2022-09-07T06:15:01.918Z,19.28
2022-09-07T06:17:29.979Z,19.49
2022-09-07T06:19:57.794Z,19.80
2022-09-07T06:22:28.855Z,20.07
2022-09-07T06:24:57.908Z,20.35
2022-09-07T06:27:25.033Z,20.68
2022-09-07T06:29:52.024Z,21.00
2022-09-07T06:35:06.814Z,21.75
2022-09-07T06:37:34.119Z,22.03
2022-09-07T06:40:01.171Z,22.22
2022-09-07T06:42:28.399Z,22.47
2022-09-07T06:44:55.699Z,22.72
2022-09-07T06:47:23.036Z,22.95
2022-09-07T06:49:50.060Z,23.21
2022-09-07T06:52:17.310Z,23.28
2022-09-07T06:55:00.593Z,23.40
2022-09-07T06:57:28.274Z,23.54
2022-09-07T06:59:56.476Z,23.78
2022-09-07T07:02:23.554Z,24.14
2022-09-07T07:04:50.871Z,24.38
2022-09-07T07:07:18.279Z,24.60
2022-09-07T07:09:46.145Z,24.99
2022-09-07T07:14:44.904Z,25.37
2022-09-07T07:17:12.686Z,25.50
2022-09-07T07:19:39.753Z,25.55
2022-09-07T07:22:29.157Z,25.70
2022-09-07T07:24:54.774Z,25.97
2022-09-07T07:27:22.547Z,26.18
2022-09-07T07:29:50.221Z,26.34
2022-09-07T07:32:17.247Z,26.55
2022-09-07T07:34:44.364Z,26.89
2022-09-07T07:37:11.334Z,27.21
2022-09-07T07:42:26.205Z,27.44
2022-09-07T07:47:41.120Z,27.41
2022-09-07T07:55:43.279Z,26.65
2022-09-07T07:58:10.690Z,26.53
2022-09-07T08:00:53.401Z,26.35
2022-09-07T08:03:26.074Z,26.38
2022-09-07T08:05:54.389Z,26.52
2022-09-07T08:08:23.328Z,26.49
2022-09-07T08:10:51.100Z,26.43
2022-09-07T08:13:19.430Z,26.50
2022-09-07T08:15:46.882Z,26.48
2022-09-07T08:18:16.478Z,26.64
2022-09-07T08:20:44.330Z,26.89
2022-09-07T08:23:12.069Z,26.78
2022-09-07T08:25:39.137Z,26.65
2022-09-07T08:28:06.323Z,26.80
2022-09-07T08:30:33.358Z,27.00
2022-09-07T08:33:00.315Z,27.05
2022-09-07T08:35:27.675Z,27.07
2022-09-07T08:37:54.541Z,27.17
2022-09-07T08:40:21.710Z,27.29
2022-09-07T08:43:20.789Z,27.41
2022-09-07T08:45:53.615Z,27.45
2022-09-07T08:48:27.133Z,27.49
2022-09-07T08:51:01.153Z,27.41
2022-09-07T08:53:29.647Z,27.30
2022-09-07T08:56:02.011Z,27.27
2022-09-07T08:58:53.628Z,26.91
2022-09-07T09:01:31.968Z,26.79
2022-09-07T09:04:16.072Z,27.05
2022-09-07T09:07:20.141Z,27.32
2022-09-07T09:10:16.498Z,27.61
2022-09-07T09:13:03.919Z,27.80
2022-09-07T09:15:39.922Z,27.65
2022-09-07T09:18:39.257Z,27.47
2022-09-07T09:21:13.325Z,27.38
2022-09-07T09:23:43.143Z,27.56
2022-09-07T09:26:21.893Z,27.74
2022-09-07T09:28:48.935Z,28.06
2022-09-07T09:31:22.063Z,28.04
2022-09-07T09:34:21.188Z,27.98
2022-09-07T09:36:53.060Z,27.94
2022-09-07T09:39:34.821Z,27.87
2022-09-07T09:42:17.645Z,27.96
2022-09-07T09:44:45.844Z,27.87
2022-09-07T09:47:29.757Z,28.08
2022-09-07T09:50:01.393Z,28.08
2022-09-07T09:52:41.802Z,28.20
2022-09-07T09:55:35.513Z,27.88
2022-09-07T10:01:26.885Z,27.88
2022-09-07T10:06:30.110Z,27.96
2022-09-07T10:09:00.456Z,28.12
2022-09-07T10:14:42.426Z,28.57
2022-09-07T10:17:30.263Z,28.48
2022-09-07T10:20:02.229Z,28.46
2022-09-07T10:22:39.323Z,28.44
2022-09-07T10:25:37.311Z,28.55
2022-09-07T10:28:12.994Z,28.46
2022-09-07T10:31:12.328Z,28.52
2022-09-07T10:37:10.086Z,28.64
2022-09-07T10:39:44.245Z,28.32
2022-09-07T10:42:31.168Z,28.43
2022-09-07T10:45:16.787Z,28.51
2022-09-07T10:48:14.154Z,28.49
2022-09-07T10:51:13.390Z,28.30
2022-09-07T10:57:05.819Z,28.41
2022-09-07T11:00:13.048Z,28.54
2022-09-07T11:03:29.608Z,28.67
2022-09-07T11:05:59.481Z,28.74
2022-09-07T11:15:03.918Z,29.10
2022-09-07T11:17:40.833Z,29.25
2022-09-07T11:20:33.955Z,29.24
2022-09-07T11:23:18.887Z,28.94
2022-09-07T11:26:11.547Z,28.97
2022-09-07T11:31:48.078Z,28.76
2022-09-07T11:34:25.419Z,28.75
2022-09-07T11:36:59.448Z,28.95
2022-09-07T11:39:39.911Z,28.94
2022-09-07T11:45:14.221Z,28.91
2022-09-07T11:47:45.285Z,28.91
2022-09-07T11:50:18.206Z,28.97
2022-09-07T11:52:58.852Z,29.14
2022-09-07T11:55:32.408Z,29.27
2022-09-07T11:58:33.870Z,29.36
2022-09-07T12:01:09.886Z,29.38
2022-09-07T12:04:16.699Z,29.40
2022-09-07T12:07:21.308Z,29.30
2022-09-07T12:10:23.656Z,29.43
2022-09-07T12:13:29.291Z,29.52
2022-09-07T12:16:34.394Z,29.49
2022-09-07T12:19:16.522Z,29.54
2022-09-07T12:21:47.551Z,29.60
2022-09-07T12:24:48.725Z,29.65
2022-09-07T12:27:21.975Z,29.34
2022-09-07T12:29:58.940Z,29.11
2022-09-07T12:32:55.707Z,28.91
2022-09-07T12:35:30.038Z,29.00
2022-09-07T12:38:01.552Z,29.05
2022-09-07T12:40:33.667Z,28.85
2022-09-07T12:43:12.973Z,28.67
2022-09-07T12:45:40.206Z,28.89
2022-09-07T12:48:26.859Z,29.05
2022-09-07T12:51:59.650Z,28.94
2022-09-07T12:54:33.762Z,28.84
2022-09-07T12:57:50.383Z,28.57
2022-09-07T13:00:48.205Z,28.75
2022-09-07T13:09:25.654Z,28.69
2022-09-07T13:11:52.859Z,28.67
2022-09-07T13:14:25.137Z,28.52
2022-09-07T13:17:30.708Z,28.57
2022-09-07T13:19:57.662Z,28.51
2022-09-07T13:22:30.701Z,28.53
2022-09-07T13:25:00.070Z,28.59
2022-09-07T13:27:44.219Z,28.76
2022-09-07T13:30:17.043Z,28.73
2022-09-07T13:35:34.775Z,28.70
2022-09-07T13:38:04.229Z,28.58
2022-09-07T13:40:34.910Z,28.42
2022-09-07T13:43:04.670Z,28.41
2022-09-07T13:45:59.825Z,28.46
2022-09-07T13:48:57.628Z,28.23
2022-09-07T13:51:32.313Z,28.20
2022-09-07T13:54:17.922Z,28.13
2022-09-07T13:57:16.089Z,28.16
2022-09-07T13:59:46.628Z,28.05
2022-09-07T14:02:27.371Z,27.79
2022-09-07T14:05:00.650Z,27.49
2022-09-07T14:07:30.481Z,27.39
2022-09-07T14:10:23.470Z,27.48
2022-09-07T14:13:05.751Z,27.60
2022-09-07T14:15:46.309Z,27.43
2022-09-07T14:18:39.868Z,27.45
2022-09-07T14:21:09.968Z,27.51
2022-09-07T14:23:40.089Z,27.60
2022-09-07T14:26:16.655Z,27.70
2022-09-07T14:28:46.249Z,27.84
2022-09-07T14:31:16.458Z,27.83
2022-09-07T14:33:49.743Z,27.79
2022-09-07T14:36:41.628Z,27.67
2022-09-07T14:39:07.810Z,27.59
2022-09-07T14:41:38.780Z,27.51
2022-09-07T14:44:06.979Z,27.39
2022-09-07T14:46:35.071Z,27.25
2022-09-07T14:49:07.982Z,27.13
2022-09-07T14:51:36.952Z,27.05
2022-09-07T14:54:07.054Z,26.98
2022-09-07T14:56:40.395Z,26.93
2022-09-07T14:59:28.615Z,26.91
2022-09-07T15:02:28.588Z,26.74
2022-09-07T15:05:26.552Z,26.57
2022-09-07T15:08:02.909Z,26.46
2022-09-07T15:10:32.036Z,26.49
2022-09-07T15:13:01.607Z,26.35
2022-09-07T15:15:37.471Z,26.39
2022-09-07T15:18:26.355Z,26.38
2022-09-07T15:20:53.403Z,26.41
2022-09-07T15:23:20.854Z,26.42
2022-09-07T15:25:53.611Z,26.38
2022-09-07T15:34:17.054Z,26.07
2022-09-07T15:36:48.728Z,26.03
2022-09-07T15:39:25.005Z,26.04
2022-09-07T15:41:52.756Z,26.26
2022-09-07T15:44:24.961Z,26.10
2022-09-07T15:49:46.043Z,25.47
2022-09-07T15:52:14.511Z,25.33
2022-09-07T15:54:41.681Z,25.14
2022-09-07T15:59:55.716Z,24.76
2022-09-07T16:05:10.531Z,24.45
2022-09-07T16:10:31.168Z,24.14
2022-09-07T16:13:02.824Z,24.03
2022-09-07T16:15:32.067Z,23.89
2022-09-07T16:17:59.320Z,23.72
2022-09-07T16:20:31.942Z,23.56
2022-09-07T16:23:16.236Z,23.40
2022-09-07T16:25:56.582Z,23.16
2022-09-07T16:28:24.018Z,23.02
2022-09-07T16:30:51.179Z,22.86
2022-09-07T16:33:18.487Z,22.66
2022-09-07T16:36:00.165Z,22.44
2022-09-07T16:38:44.433Z,22.27
2022-09-07T16:41:20.633Z,22.13
2022-09-07T16:43:48.196Z,22.05
2022-09-07T16:46:18.999Z,21.91
2022-09-07T16:51:43.423Z,21.54
2022-09-07T16:54:13.974Z,21.35
2022-09-07T16:56:41.110Z,21.27
2022-09-07T16:59:09.985Z,21.19
2022-09-07T17:01:40.802Z,21.04
2022-09-07T17:04:11.027Z,20.95
2022-09-07T17:06:39.775Z,20.78
2022-09-07T17:09:08.885Z,20.72
2022-09-07T17:11:37.223Z,20.64
2022-09-07T17:14:06.871Z,20.45
2022-09-07T17:16:37.414Z,20.34
2022-09-07T17:21:55.384Z,20.12
2022-09-07T17:24:24.823Z,20.13
2022-09-07T17:26:52.387Z,20.06
2022-09-07T17:29:19.839Z,19.91
2022-09-07T17:34:34.556Z,19.81
2022-09-07T17:37:02.003Z,19.87
2022-09-07T17:39:29.708Z,19.88
2022-09-07T17:42:01.013Z,19.93
2022-09-07T17:44:37.610Z,19.93
2022-09-07T17:47:08.796Z,19.97
2022-09-07T17:49:36.742Z,20.13
2022-09-07T17:52:04.725Z,20.16
2022-09-07T17:54:32.296Z,20.10
2022-09-07T17:56:59.642Z,20.06
2022-09-07T18:02:14.524Z,20.20
2022-09-07T18:04:41.597Z,20.26
2022-09-07T18:07:09.057Z,20.24
2022-09-07T18:09:36.840Z,20.28
2022-09-07T18:12:04.137Z,20.32
2022-09-07T18:14:32.227Z,20.28
2022-09-07T18:17:02.218Z,20.28
2022-09-07T18:19:29.331Z,20.27
2022-09-07T18:21:56.952Z,20.34
2022-09-07T18:24:25.595Z,20.41
2022-09-07T18:26:54.190Z,20.39
2022-09-07T18:29:29.907Z,20.30
2022-09-07T18:31:58.762Z,20.26
2022-09-07T18:34:25.974Z,20.28
2022-09-07T18:36:55.207Z,20.19
2022-09-07T18:39:23.347Z,20.15
2022-09-07T18:41:53.314Z,20.14
2022-09-07T18:47:22.339Z,20.26
2022-09-07T18:49:55.237Z,20.28
2022-09-07T18:55:16.538Z,20.28
2022-09-07T18:57:47.098Z,20.26
2022-09-07T19:00:15.340Z,20.36
2022-09-07T19:02:49.921Z,20.37
2022-09-07T19:08:09.041Z,20.37
2022-09-07T19:10:38.065Z,20.28
2022-09-07T19:13:05.471Z,20.21
2022-09-07T19:15:37.612Z,20.13
2022-09-07T19:18:07.070Z,20.12
2022-09-07T19:20:36.188Z,20.05
2022-09-07T19:23:06.759Z,20.08
2022-09-07T19:25:34.168Z,20.16
2022-09-07T19:28:01.590Z,20.18
2022-09-07T19:30:29.350Z,20.21
2022-09-07T19:32:58.585Z,20.24
2022-09-07T19:35:36.478Z,20.15
2022-09-07T19:38:04.016Z,20.05
2022-09-07T19:40:36.573Z,20.08
2022-09-07T19:43:04.184Z,19.94
2022-09-07T19:45:34.308Z,19.89
2022-09-07T19:48:02.883Z,19.83
2022-09-07T19:50:35.881Z,19.69
2022-09-07T19:53:03.344Z,19.62
2022-09-07T19:55:31.191Z,19.51
2022-09-07T19:58:12.531Z,19.42
2022-09-07T20:00:42.432Z,19.24
2022-09-07T20:03:10.898Z,19.07
2022-09-07T20:08:41.814Z,18.84
2022-09-07T20:11:14.809Z,18.74
2022-09-07T20:13:44.092Z,18.66
2022-09-07T20:16:14.072Z,18.53
2022-09-07T20:19:18.128Z,18.53
2022-09-07T20:21:42.733Z,18.35
2022-09-07T20:24:25.091Z,18.38
2022-09-07T20:26:55.597Z,18.24
2022-09-07T20:29:29.700Z,18.11
2022-09-07T20:31:58.913Z,18.03
2022-09-07T20:34:27.468Z,17.92
2022-09-07T20:36:55.632Z,17.81
2022-09-07T20:39:23.655Z,17.80
2022-09-07T20:41:50.792Z,17.80
2022-09-07T20:44:17.975Z,17.87
2022-09-07T20:46:46.097Z,17.90
2022-09-07T20:49:13.427Z,17.99
2022-09-07T20:51:40.589Z,18.03
2022-09-07T20:54:07.791Z,18.04
2022-09-07T20:56:35.446Z,18.09
2022-09-07T20:59:03.379Z,18.07
2022-09-07T21:01:35.594Z,18.16
2022-09-07T21:04:03.057Z,18.37
2022-09-07T21:06:31.520Z,18.44
2022-09-07T21:08:59.942Z,18.46
2022-09-07T21:11:30.708Z,18.45
2022-09-07T21:14:07.940Z,18.41
2022-09-07T21:16:36.168Z,18.42
2022-09-07T21:19:05.880Z,18.37
2022-09-07T21:21:39.692Z,18.29
2022-09-07T21:24:14.713Z,18.34
2022-09-07T21:26:42.201Z,18.27
2022-09-07T21:29:18.634Z,18.24
2022-09-07T21:31:46.064Z,18.22
2022-09-07T21:34:13.642Z,18.21
2022-09-07T21:36:40.899Z,18.25
2022-09-07T21:39:12.565Z,18.26
2022-09-07T21:41:42.452Z,18.31
2022-09-07T21:44:13.803Z,18.35
2022-09-07T21:46:42.118Z,18.39
2022-09-07T21:49:09.281Z,18.38
2022-09-07T21:51:36.295Z,18.33
2022-09-07T21:54:03.725Z,18.33
2022-09-07T21:56:31.789Z,18.35
2022-09-07T21:59:00.512Z,18.33
2022-09-07T22:01:29.599Z,18.31
2022-09-07T22:03:59.201Z,18.25
2022-09-07T22:06:28.474Z,18.17
2022-09-07T22:08:56.280Z,18.16
2022-09-07T22:11:23.867Z,18.15
2022-09-07T22:13:55.897Z,18.07
2022-09-07T22:16:23.775Z,17.88
2022-09-07T22:18:50.902Z,17.79
2022-09-07T22:21:24.411Z,17.74
2022-09-07T22:23:54.805Z,17.62
2022-09-07T22:26:23.922Z,17.60
2022-09-07T22:28:52.117Z,17.58
2022-09-07T22:31:28.859Z,17.51
2022-09-07T22:33:57.598Z,17.47
2022-09-07T22:36:28.283Z,17.39
2022-09-07T22:38:57.728Z,17.29
2022-09-07T22:41:28.007Z,17.24
2022-09-07T22:43:56.343Z,17.18
2022-09-07T22:46:25.683Z,17.10
2022-09-07T22:48:55.666Z,17.16
2022-09-07T22:51:24.547Z,17.11
2022-09-07T22:53:52.643Z,17.06
2022-09-07T22:56:22.837Z,17.03
2022-09-07T22:58:53.075Z,17.04
2022-09-07T23:01:25.384Z,16.90
2022-09-07T23:03:52.689Z,16.88
2022-09-07T23:06:31.084Z,16.85
2022-09-07T23:09:00.305Z,16.74
2022-09-07T23:11:28.281Z,16.72
2022-09-07T23:13:57.878Z,16.62
2022-09-07T23:16:26.531Z,16.59
2022-09-07T23:18:54.876Z,16.57
2022-09-07T23:21:22.112Z,16.57
2022-09-07T23:23:51.644Z,16.44
2022-09-07T23:26:20.709Z,16.39
2022-09-07T23:28:52.468Z,16.31
2022-09-07T23:31:20.062Z,16.25
2022-09-07T23:33:47.823Z,16.21
2022-09-07T23:36:15.604Z,16.20
2022-09-07T23:38:42.892Z,16.13
2022-09-07T23:41:10.318Z,16.14
2022-09-07T23:43:37.484Z,16.17
2022-09-07T23:46:04.867Z,16.14
2022-09-07T23:48:32.094Z,16.08
2022-09-07T23:50:59.120Z,15.90
2022-09-07T23:53:26.408Z,15.91
2022-09-07T23:55:54.017Z,15.89
2022-09-07T23:58:22.521Z,15.89
